sensor_id;sensor_type;location;lat;lon;timestamp;pressure;altitude;pressure_sealevel;temperature;humidity
11676;BME280;5894;42.768;23.404;2023-03-18T00:02:13;96100.31;;;2.49;100.00
11676;BME280;5894;42.768;23.404;2023-03-18T00:04:40;96097.03;;;2.37;100.00
11676;BME280;5894;42.768;23.404;2023-03-18T00:07:07;96098.75;;;2.32;100.00
11676;BME280;5894;42.768;23.404;2023-03-18T00:09:34;96087.16;;;2.22;100.00
11676;BME280;5894;42.768;23.404;2023-03-18T00:12:00;96088.16;;;2.21;100.00
11676;BME280;5894;42.768;23.404;2023-03-18T00:14:27;96053.69;;;1.98;100.00
11676;BME280;5894;42.768;23.404;2023-03-18T00:16:54;96084.88;;;2.26;100.00
11676;BME280;5894;42.768;23.404;2023-03-18T00:19:23;96078.22;;;2.18;100.00
11676;BME280;5894;42.768;23.404;2023-03-18T00:21:50;96087.88;;;2.18;100.00
11676;BME280;5894;42.768;23.404;2023-03-18T00:24:17;96030.25;;;1.81;100.00
11676;BME280;5894;42.768;23.404;2023-03-18T00:26:43;96082.50;;;2.25;100.00
11676;BME280;5894;42.768;23.404;2023-03-18T00:29:10;96080.84;;;2.35;100.00
11676;BME280;5894;42.768;23.404;2023-03-18T00:31:38;96075.63;;;2.35;100.00
11676;BME280;5894;42.768;23.404;2023-03-18T00:34:04;96065.13;;;2.13;100.00
11676;BME280;5894;42.768;23.404;2023-03-18T00:36:33;96071.97;;;2.03;100.00
11676;BME280;5894;42.768;23.404;2023-03-18T00:39:01;96063.16;;;2.04;100.00
11676;BME280;5894;42.768;23.404;2023-03-18T00:41:29;96065.03;;;2.08;100.00
11676;BME280;5894;42.768;23.404;2023-03-18T00:43:57;96060.78;;;2.02;100.00
11676;BME280;5894;42.768;23.404;2023-03-18T00:46:27;96063.06;;;1.99;100.00
11676;BME280;5894;42.768;23.404;2023-03-18T00:48:55;96021.03;;;1.73;100.00
11676;BME280;5894;42.768;23.404;2023-03-18T00:51:24;96049.19;;;1.93;100.00
11676;BME280;5894;42.768;23.404;2023-03-18T00:53:55;96047.06;;;1.90;100.00
11676;BME280;5894;42.768;23.404;2023-03-18T00:56:25;96043.91;;;1.88;100.00
11676;BME280;5894;42.768;23.404;2023-03-18T00:58:52;96042.56;;;1.86;100.00
11676;BME280;5894;42.768;23.404;2023-03-18T01:01:20;96049.59;;;1.85;100.00
11676;BME280;5894;42.768;23.404;2023-03-18T01:03:48;96039.63;;;1.82;100.00
11676;BME280;5894;42.768;23.404;2023-03-18T01:06:17;96046.09;;;1.79;100.00
11676;BME280;5894;42.768;23.404;2023-03-18T01:08:45;96046.09;;;1.79;100.00
11676;BME280;5894;42.768;23.404;2023-03-18T01:11:13;96045.53;;;1.77;100.00
11676;BME280;5894;42.768;23.404;2023-03-18T01:13:41;96033.66;;;1.81;100.00
11676;BME280;5894;42.768;23.404;2023-03-18T01:16:08;96036.97;;;1.94;100.00
11676;BME280;5894;42.768;23.404;2023-03-18T01:18:36;96035.91;;;1.78;100.00
11676;BME280;5894;42.768;23.404;2023-03-18T01:21:04;96009.56;;;1.58;100.00
11676;BME280;5894;42.768;23.404;2023-03-18T01:23:36;96031.56;;;1.67;100.00
11676;BME280;5894;42.768;23.404;2023-03-18T01:26:03;96033.97;;;1.57;100.00
11676;BME280;5894;42.768;23.404;2023-03-18T01:28:32;96030.19;;;1.47;100.00
11676;BME280;5894;42.768;23.404;2023-03-18T01:31:00;96034.81;;;1.45;100.00
11676;BME280;5894;42.768;23.404;2023-03-18T01:33:27;95988.28;;;1.16;100.00
11676;BME280;5894;42.768;23.404;2023-03-18T01:35:57;96029.63;;;1.45;100.00
11676;BME280;5894;42.768;23.404;2023-03-18T01:38:27;96022.53;;;1.41;100.00
11676;BME280;5894;42.768;23.404;2023-03-18T01:40:59;96020.94;;;1.40;100.00
11676;BME280;5894;42.768;23.404;2023-03-18T01:43:28;95962.69;;;0.96;100.00
11676;BME280;5894;42.768;23.404;2023-03-18T01:45:58;96025.34;;;1.39;100.00
11676;BME280;5894;42.768;23.404;2023-03-18T01:48:28;96021.28;;;1.43;100.00
11676;BME280;5894;42.768;23.404;2023-03-18T01:51:06;96021.75;;;1.40;100.00
11676;BME280;5894;42.768;23.404;2023-03-18T01:53:38;96025.47;;;1.44;100.00
11676;BME280;5894;42.768;23.404;2023-03-18T01:56:06;96016.94;;;1.49;100.00
11676;BME280;5894;42.768;23.404;2023-03-18T01:58:37;96015.72;;;1.52;100.00
11676;BME280;5894;42.768;23.404;2023-03-18T02:01:10;96011.31;;;1.52;100.00
11676;BME280;5894;42.768;23.404;2023-03-18T02:03:40;96008.13;;;1.50;100.00
11676;BME280;5894;42.768;23.404;2023-03-18T02:06:08;96011.06;;;1.54;100.00
11676;BME280;5894;42.768;23.404;2023-03-18T02:08:38;95999.78;;;1.48;100.00
11676;BME280;5894;42.768;23.404;2023-03-18T02:11:07;95969.97;;;1.22;100.00
11676;BME280;5894;42.768;23.404;2023-03-18T02:13:37;96012.53;;;1.50;100.00
11676;BME280;5894;42.768;23.404;2023-03-18T02:16:10;96010.88;;;1.43;100.00
11676;BME280;5894;42.768;23.404;2023-03-18T02:18:42;96010.88;;;1.43;100.00
11676;BME280;5894;42.768;23.404;2023-03-18T02:21:23;95993.75;;;1.31;100.00
11676;BME280;5894;42.768;23.404;2023-03-18T02:23:57;96015.19;;;1.38;100.00
11676;BME280;5894;42.768;23.404;2023-03-18T02:26:32;96017.56;;;1.39;100.00
11676;BME280;5894;42.768;23.404;2023-03-18T02:29:05;96006.75;;;1.31;100.00
11676;BME280;5894;42.768;23.404;2023-03-18T02:31:43;96007.53;;;1.31;100.00
11676;BME280;5894;42.768;23.404;2023-03-18T02:34:11;96009.34;;;1.31;100.00
11676;BME280;5894;42.768;23.404;2023-03-18T02:36:40;96003.38;;;1.30;100.00
11676;BME280;5894;42.768;23.404;2023-03-18T02:39:12;96004.72;;;1.33;100.00
11676;BME280;5894;42.768;23.404;2023-03-18T02:41:39;96002.25;;;1.26;100.00
11676;BME280;5894;42.768;23.404;2023-03-18T02:44:09;96008.22;;;1.27;100.00
11676;BME280;5894;42.768;23.404;2023-03-18T02:46:51;96002.84;;;1.17;100.00
11676;BME280;5894;42.768;23.404;2023-03-18T02:49:20;96004.38;;;1.29;100.00
11676;BME280;5894;42.768;23.404;2023-03-18T02:51:49;96004.53;;;1.23;100.00
11676;BME280;5894;42.768;23.404;2023-03-18T02:54:20;96011.00;;;1.08;100.00
11676;BME280;5894;42.768;23.404;2023-03-18T02:56:47;96006.38;;;1.10;100.00
11676;BME280;5894;42.768;23.404;2023-03-18T02:59:16;96005.59;;;1.10;100.00
11676;BME280;5894;42.768;23.404;2023-03-18T03:01:45;96002.28;;;1.15;100.00
11676;BME280;5894;42.768;23.404;2023-03-18T03:04:13;96002.97;;;1.10;100.00
11676;BME280;5894;42.768;23.404;2023-03-18T03:06:41;96007.81;;;1.18;100.00
11676;BME280;5894;42.768;23.404;2023-03-18T03:09:11;96008.50;;;1.14;100.00
11676;BME280;5894;42.768;23.404;2023-03-18T03:11:39;96009.19;;;1.09;100.00
11676;BME280;5894;42.768;23.404;2023-03-18T03:14:12;96008.06;;;1.05;100.00
11676;BME280;5894;42.768;23.404;2023-03-18T03:16:42;95997.47;;;0.95;100.00
11676;BME280;5894;42.768;23.404;2023-03-18T03:19:09;96001.78;;;1.01;100.00
11676;BME280;5894;42.768;23.404;2023-03-18T03:21:36;96012.00;;;1.07;100.00
11676;BME280;5894;42.768;23.404;2023-03-18T03:24:04;96013.59;;;1.08;100.00
11676;BME280;5894;42.768;23.404;2023-03-18T03:26:31;96014.28;;;1.04;100.00
11676;BME280;5894;42.768;23.404;2023-03-18T03:28:59;96019.72;;;1.02;100.00
11676;BME280;5894;42.768;23.404;2023-03-18T03:31:26;96025.94;;;1.01;100.00
11676;BME280;5894;42.768;23.404;2023-03-18T03:33:54;96028.31;;;1.03;100.00
11676;BME280;5894;42.768;23.404;2023-03-18T03:36:21;96020.97;;;1.00;100.00
11676;BME280;5894;42.768;23.404;2023-03-18T03:38:48;96026.16;;;1.00;100.00
11676;BME280;5894;42.768;23.404;2023-03-18T03:41:15;96008.00;;;0.88;100.00
11676;BME280;5894;42.768;23.404;2023-03-18T03:43:43;96024.56;;;0.99;100.00
11676;BME280;5894;42.768;23.404;2023-03-18T03:46:10;96024.00;;;0.97;100.00
11676;BME280;5894;42.768;23.404;2023-03-18T03:48:38;96011.38;;;0.89;100.00
11676;BME280;5894;42.768;23.404;2023-03-18T03:51:10;96021.97;;;0.99;100.00
11676;BME280;5894;42.768;23.404;2023-03-18T03:53:37;96032.47;;;1.04;100.00
11676;BME280;5894;42.768;23.404;2023-03-18T03:56:06;96002.25;;;0.86;100.00
11676;BME280;5894;42.768;23.404;2023-03-18T03:58:33;96040.03;;;1.05;100.00
11676;BME280;5894;42.768;23.404;2023-03-18T04:01:01;95974.78;;;0.39;100.00
11676;BME280;5894;42.768;23.404;2023-03-18T04:03:29;96041.09;;;0.81;100.00
11676;BME280;5894;42.768;23.404;2023-03-18T04:05:56;96032.63;;;0.74;100.00
11676;BME280;5894;42.768;23.404;2023-03-18T04:08:30;96039.75;;;0.79;100.00
11676;BME280;5894;42.768;23.404;2023-03-18T04:10:57;96042.56;;;0.77;100.00
11676;BME280;5894;42.768;23.404;2023-03-18T04:13:24;96040.97;;;0.88;100.00
11676;BME280;5894;42.768;23.404;2023-03-18T04:15:52;96045.72;;;0.79;100.00
11676;BME280;5894;42.768;23.404;2023-03-18T04:18:19;96043.69;;;0.81;100.00
11676;BME280;5894;42.768;23.404;2023-03-18T04:20:47;96054.31;;;0.80;100.00
11676;BME280;5894;42.768;23.404;2023-03-18T04:23:22;96059.38;;;0.74;100.00
11676;BME280;5894;42.768;23.404;2023-03-18T04:25:51;96056.34;;;0.78;100.00
11676;BME280;5894;42.768;23.404;2023-03-18T04:28:18;96058.84;;;0.72;100.00
11676;BME280;5894;42.768;23.404;2023-03-18T04:30:46;96007.72;;;0.38;100.00
11676;BME280;5894;42.768;23.404;2023-03-18T04:33:16;96065.91;;;0.54;100.00
11676;BME280;5894;42.768;23.404;2023-03-18T04:35:44;96047.66;;;0.49;100.00
11676;BME280;5894;42.768;23.404;2023-03-18T04:38:13;96065.25;;;0.70;100.00
11676;BME280;5894;42.768;23.404;2023-03-18T04:40:40;96059.38;;;0.63;100.00
11676;BME280;5894;42.768;23.404;2023-03-18T04:43:10;96074.50;;;0.66;100.00
11676;BME280;5894;42.768;23.404;2023-03-18T04:45:38;96076.09;;;0.67;100.00
11676;BME280;5894;42.768;23.404;2023-03-18T04:48:05;96081.84;;;0.81;100.00
11676;BME280;5894;42.768;23.404;2023-03-18T04:50:36;96085.09;;;0.76;100.00
11676;BME280;5894;42.768;23.404;2023-03-18T04:53:07;96084.44;;;0.69;100.00
11676;BME280;5894;42.768;23.404;2023-03-18T04:55:33;96039.44;;;0.40;100.00
11676;BME280;5894;42.768;23.404;2023-03-18T04:58:03;96077.66;;;0.80;100.00
11676;BME280;5894;42.768;23.404;2023-03-18T05:00:36;96078.69;;;0.79;100.00
11676;BME280;5894;42.768;23.404;2023-03-18T05:03:16;96075.50;;;0.77;100.00
11676;BME280;5894;42.768;23.404;2023-03-18T05:05:43;96080.72;;;0.77;100.00
11676;BME280;5894;42.768;23.404;2023-03-18T05:08:12;96075.88;;;0.80;100.00
11676;BME280;5894;42.768;23.404;2023-03-18T05:10:40;96067.16;;;0.86;100.00
11676;BME280;5894;42.768;23.404;2023-03-18T05:13:07;96074.84;;;0.93;100.00
11676;BME280;5894;42.768;23.404;2023-03-18T05:15:37;96071.31;;;0.99;100.00
11676;BME280;5894;42.768;23.404;2023-03-18T05:18:04;96073.91;;;0.99;100.00
11676;BME280;5894;42.768;23.404;2023-03-18T05:20:31;96051.56;;;0.86;100.00
11676;BME280;5894;42.768;23.404;2023-03-18T05:22:59;96078.97;;;1.05;100.00
11676;BME280;5894;42.768;23.404;2023-03-18T05:25:39;96082.16;;;1.07;100.00
11676;BME280;5894;42.768;23.404;2023-03-18T05:28:07;96083.38;;;1.05;100.00
11676;BME280;5894;42.768;23.404;2023-03-18T05:30:47;96027.44;;;0.74;100.00
11676;BME280;5894;42.768;23.404;2023-03-18T05:33:15;96090.25;;;1.23;100.00
11676;BME280;5894;42.768;23.404;2023-03-18T05:35:50;96094.53;;;1.29;100.00
11676;BME280;5894;42.768;23.404;2023-03-18T05:38:21;96102.75;;;1.37;100.00
11676;BME280;5894;42.768;23.404;2023-03-18T05:40:49;96081.69;;;1.22;100.00
11676;BME280;5894;42.768;23.404;2023-03-18T05:43:24;96098.97;;;1.17;100.00
11676;BME280;5894;42.768;23.404;2023-03-18T05:45:57;96094.09;;;1.20;100.00
11676;BME280;5894;42.768;23.404;2023-03-18T05:48:47;96095.69;;;1.21;100.00
11676;BME280;5894;42.768;23.404;2023-03-18T05:51:14;96098.50;;;1.31;100.00
11676;BME280;5894;42.768;23.404;2023-03-18T05:53:41;96089.56;;;1.27;100.00
11676;BME280;5894;42.768;23.404;2023-03-18T05:56:17;96092.69;;;1.41;100.00
11676;BME280;5894;42.768;23.404;2023-03-18T05:58:48;96088.97;;;1.37;100.00
11676;BME280;5894;42.768;23.404;2023-03-18T06:01:24;96102.94;;;1.47;100.00
11676;BME280;5894;42.768;23.404;2023-03-18T06:03:51;96096.13;;;1.58;100.00
11676;BME280;5894;42.768;23.404;2023-03-18T06:06:19;96093.09;;;1.61;100.00
11676;BME280;5894;42.768;23.404;2023-03-18T06:08:46;96107.22;;;1.65;100.00
11676;BME280;5894;42.768;23.404;2023-03-18T06:11:13;96092.72;;;1.69;100.00
11676;BME280;5894;42.768;23.404;2023-03-18T06:13:41;96082.09;;;1.71;100.00
11676;BME280;5894;42.768;23.404;2023-03-18T06:16:10;96087.47;;;1.81;100.00
11676;BME280;5894;42.768;23.404;2023-03-18T06:18:38;96017.09;;;1.42;100.00
11676;BME280;5894;42.768;23.404;2023-03-18T06:21:08;96087.03;;;2.01;100.00
11676;BME280;5894;42.768;23.404;2023-03-18T06:23:35;96085.31;;;2.06;100.00
11676;BME280;5894;42.768;23.404;2023-03-18T06:26:03;96083.75;;;2.22;100.00
11676;BME280;5894;42.768;23.404;2023-03-18T06:28:37;96082.50;;;2.41;100.00
11676;BME280;5894;42.768;23.404;2023-03-18T06:31:08;96082.41;;;2.53;100.00
11676;BME280;5894;42.768;23.404;2023-03-18T06:33:38;96006.00;;;2.09;100.00
11676;BME280;5894;42.768;23.404;2023-03-18T06:36:08;96093.38;;;2.72;100.00
11676;BME280;5894;42.768;23.404;2023-03-18T06:38:37;96081.66;;;2.91;100.00
11676;BME280;5894;42.768;23.404;2023-03-18T06:41:06;96075.69;;;3.12;100.00
11676;BME280;5894;42.768;23.404;2023-03-18T06:43:37;96078.72;;;3.26;100.00
11676;BME280;5894;42.768;23.404;2023-03-18T06:46:04;96062.50;;;3.19;100.00
11676;BME280;5894;42.768;23.404;2023-03-18T06:48:31;96076.31;;;3.41;100.00
11676;BME280;5894;42.768;23.404;2023-03-18T06:51:00;96069.88;;;3.49;100.00
11676;BME280;5894;42.768;23.404;2023-03-18T06:53:33;96074.63;;;3.52;100.00
11676;BME280;5894;42.768;23.404;2023-03-18T06:56:01;96047.66;;;3.41;100.00
11676;BME280;5894;42.768;23.404;2023-03-18T06:58:36;96076.59;;;3.66;100.00
11676;BME280;5894;42.768;23.404;2023-03-18T07:01:06;96080.66;;;3.79;100.00
11676;BME280;5894;42.768;23.404;2023-03-18T07:03:39;96077.00;;;3.80;100.00
11676;BME280;5894;42.768;23.404;2023-03-18T07:06:08;96076.31;;;3.90;100.00
11676;BME280;5894;42.768;23.404;2023-03-18T07:08:36;96075.63;;;3.99;100.00
11676;BME280;5894;42.768;23.404;2023-03-18T07:11:04;96071.50;;;4.03;100.00
11676;BME280;5894;42.768;23.404;2023-03-18T07:13:32;95989.00;;;3.44;100.00
11676;BME280;5894;42.768;23.404;2023-03-18T07:16:05;96074.78;;;4.21;100.00
11676;BME280;5894;42.768;23.404;2023-03-18T07:18:32;96077.22;;;4.32;100.00
11676;BME280;5894;42.768;23.404;2023-03-18T07:20:58;96079.06;;;4.37;100.00
11676;BME280;5894;42.768;23.404;2023-03-18T07:23:29;96080.97;;;4.47;100.00
11676;BME280;5894;42.768;23.404;2023-03-18T07:25:56;96074.28;;;4.56;100.00
11676;BME280;5894;42.768;23.404;2023-03-18T07:28:23;96075.66;;;4.68;100.00
11676;BME280;5894;42.768;23.404;2023-03-18T07:30:50;96063.38;;;4.69;100.00
11676;BME280;5894;42.768;23.404;2023-03-18T07:33:17;96057.13;;;4.70;100.00
11676;BME280;5894;42.768;23.404;2023-03-18T07:35:44;96070.28;;;4.85;100.00
11676;BME280;5894;42.768;23.404;2023-03-18T07:38:11;96069.31;;;4.96;100.00
11676;BME280;5894;42.768;23.404;2023-03-18T07:40:40;96061.19;;;4.93;100.00
11676;BME280;5894;42.768;23.404;2023-03-18T07:43:07;96061.34;;;5.18;100.00
11676;BME280;5894;42.768;23.404;2023-03-18T07:45:34;96068.94;;;5.30;100.00
11676;BME280;5894;42.768;23.404;2023-03-18T07:48:01;96060.84;;;5.31;100.00
11676;BME280;5894;42.768;23.404;2023-03-18T07:50:28;96073.72;;;5.43;100.00
11676;BME280;5894;42.768;23.404;2023-03-18T07:52:55;96063.75;;;5.40;100.00
11676;BME280;5894;42.768;23.404;2023-03-18T07:55:22;96061.72;;;5.47;100.00
11676;BME280;5894;42.768;23.404;2023-03-18T07:57:51;96037.03;;;5.23;100.00
11676;BME280;5894;42.768;23.404;2023-03-18T08:00:19;96069.06;;;5.55;100.00
11676;BME280;5894;42.768;23.404;2023-03-18T08:02:45;96057.75;;;5.44;100.00
11676;BME280;5894;42.768;23.404;2023-03-18T08:05:12;96038.38;;;5.35;100.00
11676;BME280;5894;42.768;23.404;2023-03-18T08:07:40;96055.13;;;5.34;100.00
11676;BME280;5894;42.768;23.404;2023-03-18T08:10:08;96066.41;;;5.45;100.00
11676;BME280;5894;42.768;23.404;2023-03-18T08:12:35;96039.97;;;5.36;100.00
11676;BME280;5894;42.768;23.404;2023-03-18T08:15:05;96061.75;;;5.62;100.00
11676;BME280;5894;42.768;23.404;2023-03-18T08:17:33;96058.38;;;5.72;100.00
11676;BME280;5894;42.768;23.404;2023-03-18T08:20:00;96055.25;;;5.80;100.00
11676;BME280;5894;42.768;23.404;2023-03-18T08:22:28;96050.53;;;5.77;100.00
11676;BME280;5894;42.768;23.404;2023-03-18T08:24:55;96038.50;;;5.71;100.00
11676;BME280;5894;42.768;23.404;2023-03-18T08:27:22;96065.03;;;6.00;100.00
11676;BME280;5894;42.768;23.404;2023-03-18T08:29:49;96064.00;;;6.11;100.00
11676;BME280;5894;42.768;23.404;2023-03-18T08:32:17;96070.00;;;6.11;100.00
11676;BME280;5894;42.768;23.404;2023-03-18T08:34:44;96054.00;;;5.98;100.00
11676;BME280;5894;42.768;23.404;2023-03-18T08:37:12;96064.00;;;6.26;100.00
11676;BME280;5894;42.768;23.404;2023-03-18T08:39:39;96032.03;;;6.14;100.00
11676;BME280;5894;42.768;23.404;2023-03-18T08:42:08;96057.97;;;6.41;100.00
11676;BME280;5894;42.768;23.404;2023-03-18T08:44:35;96019.22;;;6.33;100.00
11676;BME280;5894;42.768;23.404;2023-03-18T08:47:02;96058.22;;;6.64;100.00
11676;BME280;5894;42.768;23.404;2023-03-18T08:49:30;96055.06;;;6.68;100.00
11676;BME280;5894;42.768;23.404;2023-03-18T08:51:57;96068.41;;;6.76;100.00
11676;BME280;5894;42.768;23.404;2023-03-18T08:54:24;96072.34;;;6.79;100.00
11676;BME280;5894;42.768;23.404;2023-03-18T08:56:52;96070.78;;;6.88;100.00
11676;BME280;5894;42.768;23.404;2023-03-18T08:59:19;96050.63;;;6.73;100.00
11676;BME280;5894;42.768;23.404;2023-03-18T09:01:46;96067.88;;;6.94;100.00
11676;BME280;5894;42.768;23.404;2023-03-18T09:04:13;96067.56;;;7.06;100.00
11676;BME280;5894;42.768;23.404;2023-03-18T09:06:41;96089.59;;;7.25;100.00
11676;BME280;5894;42.768;23.404;2023-03-18T09:09:08;96077.22;;;7.31;99.48
11676;BME280;5894;42.768;23.404;2023-03-18T09:11:36;96079.84;;;7.31;96.55
11676;BME280;5894;42.768;23.404;2023-03-18T09:14:03;96085.34;;;7.34;94.16
11676;BME280;5894;42.768;23.404;2023-03-18T09:16:30;96073.22;;;7.49;99.48
11676;BME280;5894;42.768;23.404;2023-03-18T09:18:57;96072.13;;;7.60;100.00
11676;BME280;5894;42.768;23.404;2023-03-18T09:21:24;96073.69;;;7.61;100.00
11676;BME280;5894;42.768;23.404;2023-03-18T09:23:52;96082.84;;;7.68;90.52
11676;BME280;5894;42.768;23.404;2023-03-18T09:26:19;96079.69;;;7.77;90.65
11676;BME280;5894;42.768;23.404;2023-03-18T09:28:46;96079.38;;;7.83;94.27
11676;BME280;5894;42.768;23.404;2023-03-18T09:31:13;96079.38;;;7.83;92.21
11676;BME280;5894;42.768;23.404;2023-03-18T09:33:40;96069.19;;;7.71;89.80
11676;BME280;5894;42.768;23.404;2023-03-18T09:36:08;96072.59;;;7.77;91.67
11676;BME280;5894;42.768;23.404;2023-03-18T09:38:35;96067.00;;;7.89;93.73
11676;BME280;5894;42.768;23.404;2023-03-18T09:41:06;96068.28;;;7.96;93.21
11676;BME280;5894;42.768;23.404;2023-03-18T09:43:51;96064.00;;;8.05;91.50
11676;BME280;5894;42.768;23.404;2023-03-18T09:46:27;96062.91;;;8.11;90.16
11676;BME280;5894;42.768;23.404;2023-03-18T09:49:16;96062.03;;;8.26;90.50
11676;BME280;5894;42.768;23.404;2023-03-18T09:51:56;96056.78;;;8.26;90.86
11676;BME280;5894;42.768;23.404;2023-03-18T09:54:32;96058.06;;;8.34;88.83
11676;BME280;5894;42.768;23.404;2023-03-18T09:57:03;96059.03;;;8.43;92.94
11676;BME280;5894;42.768;23.404;2023-03-18T09:59:37;96050.25;;;8.58;91.27
11676;BME280;5894;42.768;23.404;2023-03-18T10:02:16;96055.00;;;8.56;91.70
11676;BME280;5894;42.768;23.404;2023-03-18T10:04:48;96057.81;;;8.64;89.54
11676;BME280;5894;42.768;23.404;2023-03-18T10:07:19;96061.56;;;8.58;85.96
11676;BME280;5894;42.768;23.404;2023-03-18T10:09:51;96069.13;;;8.65;81.70
11676;BME280;5894;42.768;23.404;2023-03-18T10:12:28;96056.75;;;8.65;66.93
11676;BME280;5894;42.768;23.404;2023-03-18T10:15:03;96047.19;;;8.74;61.77
11676;BME280;5894;42.768;23.404;2023-03-18T10:17:37;96026.13;;;8.79;64.71
11676;BME280;5894;42.768;23.404;2023-03-18T10:20:14;96037.00;;;8.97;61.65
11676;BME280;5894;42.768;23.404;2023-03-18T10:23:03;96038.63;;;9.16;62.63
11676;BME280;5894;42.768;23.404;2023-03-18T10:25:35;96032.84;;;9.14;60.60
11676;BME280;5894;42.768;23.404;2023-03-18T10:28:20;96043.44;;;9.09;68.33
11676;BME280;5894;42.768;23.404;2023-03-18T10:31:01;96035.56;;;9.09;70.23
11676;BME280;5894;42.768;23.404;2023-03-18T10:33:35;96046.00;;;9.14;70.48
11676;BME280;5894;42.768;23.404;2023-03-18T10:36:11;96052.94;;;9.05;67.60
11676;BME280;5894;42.768;23.404;2023-03-18T10:38:42;96047.69;;;8.81;72.36
11676;BME280;5894;42.768;23.404;2023-03-18T10:41:21;96049.97;;;8.59;69.32
11676;BME280;5894;42.768;23.404;2023-03-18T10:43:52;96047.97;;;8.46;69.87
11676;BME280;5894;42.768;23.404;2023-03-18T10:46:20;95941.34;;;7.72;68.78
11676;BME280;5894;42.768;23.404;2023-03-18T10:48:49;96029.06;;;8.44;72.17
11676;BME280;5894;42.768;23.404;2023-03-18T10:51:20;96032.63;;;8.58;66.86
11676;BME280;5894;42.768;23.404;2023-03-18T10:53:55;95970.03;;;8.31;66.70
11676;BME280;5894;42.768;23.404;2023-03-18T10:56:23;96054.47;;;8.82;61.91
11676;BME280;5894;42.768;23.404;2023-03-18T10:58:52;96045.00;;;8.87;61.98
11676;BME280;5894;42.768;23.404;2023-03-18T11:01:20;96038.91;;;8.91;59.75
11676;BME280;5894;42.768;23.404;2023-03-18T11:03:51;96051.63;;;9.08;58.75
11676;BME280;5894;42.768;23.404;2023-03-18T11:06:23;95995.81;;;8.87;59.40
11676;BME280;5894;42.768;23.404;2023-03-18T11:09:00;96061.25;;;9.17;59.61
11676;BME280;5894;42.768;23.404;2023-03-18T11:11:29;96046.00;;;9.14;60.33
11676;BME280;5894;42.768;23.404;2023-03-18T11:14:00;96035.28;;;9.11;60.47
11676;BME280;5894;42.768;23.404;2023-03-18T11:16:32;96047.81;;;9.19;60.01
11676;BME280;5894;42.768;23.404;2023-03-18T11:19:06;96042.78;;;9.23;57.41
11676;BME280;5894;42.768;23.404;2023-03-18T11:21:34;96041.72;;;9.24;60.11
11676;BME280;5894;42.768;23.404;2023-03-18T11:24:03;96045.34;;;9.28;59.98
11676;BME280;5894;42.768;23.404;2023-03-18T11:26:46;96032.75;;;9.25;57.37
11676;BME280;5894;42.768;23.404;2023-03-18T11:29:20;96030.84;;;9.30;62.42
11676;BME280;5894;42.768;23.404;2023-03-18T11:31:50;96025.34;;;9.27;61.54
11676;BME280;5894;42.768;23.404;2023-03-18T11:34:19;95965.53;;;8.90;62.65
11676;BME280;5894;42.768;23.404;2023-03-18T11:36:54;96026.69;;;9.24;56.80
11676;BME280;5894;42.768;23.404;2023-03-18T11:39:24;96024.91;;;9.19;56.92
11676;BME280;5894;42.768;23.404;2023-03-18T11:41:51;96029.16;;;9.15;59.77
11676;BME280;5894;42.768;23.404;2023-03-18T11:44:26;96025.97;;;9.18;60.66
11676;BME280;5894;42.768;23.404;2023-03-18T11:46:56;96028.34;;;9.20;59.19
11676;BME280;5894;42.768;23.404;2023-03-18T11:49:26;96001.66;;;9.27;63.42
11676;BME280;5894;42.768;23.404;2023-03-18T11:52:01;95978.22;;;9.30;62.77
11676;BME280;5894;42.768;23.404;2023-03-18T11:57:28;96000.63;;;9.46;56.67
11676;BME280;5894;42.768;23.404;2023-03-18T12:00:12;96017.72;;;9.68;59.18
11676;BME280;5894;42.768;23.404;2023-03-18T12:02:56;96012.69;;;9.52;56.80
11676;BME280;5894;42.768;23.404;2023-03-18T12:05:37;96021.50;;;9.62;61.03
11676;BME280;5894;42.768;23.404;2023-03-18T12:08:12;96025.25;;;9.55;58.07
11676;BME280;5894;42.768;23.404;2023-03-18T12:10:43;96020.28;;;9.54;58.84
11676;BME280;5894;42.768;23.404;2023-03-18T12:13:26;95954.13;;;9.18;56.24
11676;BME280;5894;42.768;23.404;2023-03-18T12:16:04;96014.16;;;9.58;55.66
11676;BME280;5894;42.768;23.404;2023-03-18T12:18:46;96012.97;;;9.70;59.22
11676;BME280;5894;42.768;23.404;2023-03-18T12:21:35;96001.50;;;9.61;56.52
11676;BME280;5894;42.768;23.404;2023-03-18T12:24:21;96009.47;;;9.55;59.22
11676;BME280;5894;42.768;23.404;2023-03-18T12:26:58;96008.34;;;9.62;60.63
11676;BME280;5894;42.768;23.404;2023-03-18T12:29:50;96011.75;;;9.81;61.25
11676;BME280;5894;42.768;23.404;2023-03-18T12:32:25;95998.84;;;9.98;57.63
11676;BME280;5894;42.768;23.404;2023-03-18T12:35:15;95998.53;;;9.86;56.30
11676;BME280;5894;42.768;23.404;2023-03-18T12:38:01;95952.25;;;9.61;57.31
11676;BME280;5894;42.768;23.404;2023-03-18T12:40:44;96004.50;;;9.91;54.69
11676;BME280;5894;42.768;23.404;2023-03-18T12:43:31;95985.97;;;9.78;53.53
11676;BME280;5894;42.768;23.404;2023-03-18T12:46:06;95972.75;;;9.64;52.07
11676;BME280;5894;42.768;23.404;2023-03-18T12:48:46;95994.47;;;9.75;54.63
11676;BME280;5894;42.768;23.404;2023-03-18T12:51:19;96002.22;;;9.66;54.16
11676;BME280;5894;42.768;23.404;2023-03-18T12:53:52;95970.75;;;9.37;53.09
11676;BME280;5894;42.768;23.404;2023-03-18T12:56:22;95995.59;;;9.69;53.72
11676;BME280;5894;42.768;23.404;2023-03-18T12:58:51;95976.25;;;9.60;52.85
11676;BME280;5894;42.768;23.404;2023-03-18T13:01:24;95994.66;;;9.97;52.45
11676;BME280;5894;42.768;23.404;2023-03-18T13:03:58;95979.50;;;9.89;51.22
11676;BME280;5894;42.768;23.404;2023-03-18T13:06:30;95995.41;;;9.84;48.10
11676;BME280;5894;42.768;23.404;2023-03-18T13:09:06;95988.19;;;9.89;50.10
11676;BME280;5894;42.768;23.404;2023-03-18T13:11:59;95985.56;;;9.89;50.08
11676;BME280;5894;42.768;23.404;2023-03-18T13:14:34;95992.03;;;9.97;50.18
11676;BME280;5894;42.768;23.404;2023-03-18T13:17:02;95988.63;;;9.97;46.31
11676;BME280;5894;42.768;23.404;2023-03-18T13:19:40;95925.06;;;9.47;46.04
11676;BME280;5894;42.768;23.404;2023-03-18T13:22:18;95990.81;;;9.89;52.77
11676;BME280;5894;42.768;23.404;2023-03-18T13:25:03;95994.47;;;9.75;51.10